Time;durP1;ratioP1;P1;durP2;ratioP2;P2;SDS_P1;SDS_P2;PMS_P1;PMS_P2;Temp;Humidity;BMP_temperature;BMP_pressure;BME280_temperature;BME280_humidity;BME280_pressure;Samples;Min_cycle;Max_cycle;Signal;HPM_P1;HPM_P2
2022/11/03 00:01:47;;;;;;;25.75;14.07;;;;;;;8.30;100.00;100216.55;1768888;80;21056;-92
2022/11/03 00:04:16;;;;;;;26.15;13.35;;;;;;;8.28;100.00;100213.98;1761881;81;21050;-91
2022/11/03 00:06:47;;;;;;;23.05;12.90;;;;;;;8.23;100.00;100203.17;1769453;80;21062;-92
2022/11/03 00:09:15;;;;;;;24.92;13.38;;;;;;;8.30;100.00;100204.28;1725345;79;21315;-91
2022/11/03 00:11:44;;;;;;;27.50;15.00;;;;;;;8.29;100.00;100206.96;1739444;81;21032;-90
2022/11/03 00:14:11;;;;;;;27.35;14.03;;;;;;;8.32;100.00;100204.25;1733942;82;21071;-91
2022/11/03 00:16:39;;;;;;;29.27;14.73;;;;;;;8.36;100.00;100203.27;1740200;81;21062;-91
2022/11/03 00:19:07;;;;;;;30.23;15.70;;;;;;;8.41;100.00;100196.16;1752503;78;21046;-90
2022/11/03 00:21:36;;;;;;;29.20;14.45;;;;;;;8.37;100.00;100195.80;1770943;79;21309;-91
2022/11/03 00:24:03;;;;;;;27.77;14.65;;;;;;;8.35;100.00;100201.53;1740693;81;21055;-89
2022/11/03 00:26:32;;;;;;;26.95;14.68;;;;;;;8.34;100.00;100195.43;1741175;81;20994;-90
2022/11/03 00:29:08;;;;;;;29.15;14.50;;;;;;;8.33;100.00;100200.73;1761138;80;21022;-90
2022/11/03 00:31:37;;;;;;;24.98;13.95;;;;;;;8.35;100.00;100197.59;1774564;80;21545;-90
2022/11/03 00:34:04;;;;;;;24.92;13.30;;;;;;;8.33;100.00;100203.36;1746263;81;21286;-92
2022/11/03 00:36:35;;;;;;;25.55;13.93;;;;;;;8.23;100.00;100195.31;1735721;79;20940;-89
2022/11/03 00:39:02;;;;;;;;;;;;;;;8.21;100.00;100194.03;1723469;81;20971;-90
2022/11/03 00:41:29;;;;;;;21.90;12.78;;;;;;;8.20;100.00;100189.23;1742529;81;20139;-91
2022/11/03 00:43:56;;;;;;;25.35;13.88;;;;;;;8.14;100.00;100192.05;1740446;81;21023;-89
2022/11/03 00:46:24;;;;;;;28.85;14.78;;;;;;;8.21;100.00;100196.64;1713809;83;21301;-92
2022/11/03 00:48:51;;;;;;;27.82;14.78;;;;;;;8.20;100.00;100199.73;1706397;83;21059;-93
2022/11/03 00:51:23;;;;;;;26.33;14.28;;;;;;;8.18;100.00;100199.36;1704500;83;21212;-89
2022/11/03 00:53:59;;;;;;;35.13;18.40;;;;;;;8.15;100.00;100200.31;1735152;82;21062;-90
2022/11/03 00:56:32;;;;;;;34.63;18.10;;;;;;;8.07;100.00;100191.77;1706034;81;21073;-91
2022/11/03 00:59:02;;;;;;;33.75;17.10;;;;;;;8.05;100.00;100193.59;1733927;80;23029;-91
2022/11/03 01:01:39;;;;;;;36.33;17.90;;;;;;;8.04;100.00;100201.48;1739597;82;21070;-90
2022/11/03 01:06:57;;;;;;;25.27;15.00;;;;;;;8.08;100.00;100201.83;1721216;83;21105;-89
2022/11/03 01:09:32;;;;;;;26.17;13.72;;;;;;;8.02;100.00;100200.20;1776907;79;21065;-92
2022/11/03 01:12:14;;;;;;;28.87;14.78;;;;;;;8.02;100.00;100198.89;1776894;78;21238;-89
2022/11/03 01:14:50;;;;;;;32.23;15.05;;;;;;;8.05;100.00;100202.77;1778010;80;20958;-90
2022/11/03 01:17:27;;;;;;;38.63;17.25;;;;;;;8.09;100.00;100200.45;1773667;80;21010;-90
2022/11/03 01:19:54;;;;;;;33.75;15.98;;;;;;;8.09;100.00;100203.08;1761944;80;20975;-91
2022/11/03 01:22:21;;;;;;;30.55;15.58;;;;;;;8.06;100.00;100207.10;1754957;80;21006;-89
2022/11/03 01:24:48;;;;;;;31.55;16.23;;;;;;;8.03;100.00;100195.39;1772268;80;21090;-91
2022/11/03 01:27:18;;;;;;;37.17;18.60;;;;;;;8.00;100.00;100190.20;1772249;80;21088;-93
2022/11/03 01:29:47;;;;;;;35.78;18.23;;;;;;;8.01;100.00;100177.52;1760691;80;21069;-92
2022/11/03 01:32:16;;;;;;;39.17;19.07;;;;;;;7.95;100.00;100185.53;1762437;80;21648;-92
2022/11/03 01:34:44;;;;;;;40.08;19.80;;;;;;;7.95;100.00;100173.27;1757660;80;21002;-92
2022/11/03 01:37:13;;;;;;;33.70;17.90;;;;;;;7.98;100.00;100176.26;1778494;79;21110;-91
2022/11/03 01:39:39;;;;;;;29.02;14.75;;;;;;;8.02;100.00;100173.98;1764503;79;21085;-89
2022/11/03 01:42:13;;;;;;;31.93;15.78;;;;;;;8.07;100.00;100186.52;1779837;78;20966;-93
2022/11/03 01:44:46;;;;;;;30.75;16.20;;;;;;;8.05;100.00;100198.84;1776420;80;20979;-88
2022/11/03 01:47:23;;;;;;;29.27;15.25;;;;;;;8.04;100.00;100186.60;1772023;79;21127;-92
2022/11/03 01:50:00;;;;;;;31.95;16.85;;;;;;;8.02;100.00;100182.30;1767487;79;21215;-89
2022/11/03 01:52:39;;;;;;;34.92;16.85;;;;;;;8.07;100.00;100188.28;1763551;79;21251;-91
2022/11/03 01:55:12;;;;;;;31.52;17.40;;;;;;;8.08;100.00;100179.08;1775604;80;21109;-90
2022/11/03 01:57:48;;;;;;;32.83;17.55;;;;;;;8.17;100.00;100190.64;1763349;79;21625;-90
2022/11/03 02:00:16;;;;;;;32.98;17.10;;;;;;;8.09;100.00;100192.59;1786309;79;21045;-93
2022/11/03 02:02:45;;;;;;;27.48;14.98;;;;;;;8.11;100.00;100186.85;1807938;79;21792;-90
2022/11/03 02:05:14;;;;;;;40.43;19.77;;;;;;;8.09;100.00;100186.03;1803015;78;21034;-91
2022/11/03 02:08:01;;;;;;;38.95;18.92;;;;;;;8.10;100.00;100181.67;1784378;79;21732;-91
2022/11/03 02:10:28;;;;;;;37.48;18.65;;;;;;;8.17;100.00;100182.77;1798348;78;21107;-91
2022/11/03 02:12:56;;;;;;;31.15;16.48;;;;;;;8.19;100.00;100184.91;1809358;78;22390;-92
2022/11/03 02:15:24;;;;;;;43.13;20.72;;;;;;;8.22;100.00;100184.42;1807674;79;21235;-90
2022/11/03 02:17:52;;;;;;;38.83;19.82;;;;;;;8.27;100.00;100190.40;1798870;78;21022;-93
2022/11/03 02:20:30;;;;;;;43.58;19.85;;;;;;;8.22;100.00;100194.91;1784766;79;21065;-91
2022/11/03 02:23:35;;;;;;;42.15;20.92;;;;;;;8.27;100.00;100185.15;1801300;78;21109;-92
2022/11/03 02:26:01;;;;;;;37.35;17.77;;;;;;;8.29;100.00;100183.34;1813301;78;21053;-92
2022/11/03 02:28:30;;;;;;;37.93;18.45;;;;;;;8.36;100.00;100182.28;1811424;78;21046;-91
2022/11/03 02:31:32;;;;;;;36.35;17.62;;;;;;;8.34;100.00;100184.08;1800255;77;20962;-91
2022/11/03 02:34:34;;;;;;;33.00;18.32;;;;;;;8.36;100.00;100187.06;1803818;78;20950;-92
2022/11/03 02:37:07;;;;;;;46.83;22.48;;;;;;;8.46;100.00;100181.14;1743985;80;20968;-90
2022/11/03 02:40:03;;;;;;;41.70;21.02;;;;;;;8.49;100.00;100188.95;1738090;81;21073;-91
2022/11/03 02:42:30;;;;;;;32.08;15.80;;;;;;;8.50;100.00;100188.03;1772707;78;21130;-92
2022/11/03 02:45:00;;;;;;;36.15;20.45;;;;;;;8.47;100.00;100185.51;1791577;78;21136;-92
2022/11/03 02:47:27;;;;;;;43.35;20.77;;;;;;;8.51;100.00;100189.78;1766845;79;21109;-92
2022/11/03 02:49:54;;;;;;;35.35;18.12;;;;;;;8.47;100.00;100193.37;1788678;79;21501;-93
2022/11/03 02:52:40;;;;;;;36.25;17.40;;;;;;;8.43;100.00;100192.19;1779722;79;21593;-92
2022/11/03 02:55:37;;;;;;;48.98;21.73;;;;;;;8.39;100.00;100180.88;1776344;79;21054;-89
2022/11/03 02:58:36;;;;;;;49.42;22.80;;;;;;;8.33;100.00;100191.09;1779569;79;20964;-94
2022/11/03 03:01:17;;;;;;;42.13;18.62;;;;;;;8.30;100.00;100190.30;1789112;78;21014;-89
2022/11/03 03:03:55;;;;;;;48.05;21.90;;;;;;;8.35;100.00;100193.66;1798836;79;21127;-92
2022/11/03 03:06:35;;;;;;;43.70;21.82;;;;;;;8.39;100.00;100198.78;1804349;76;21025;-92
2022/11/03 03:09:06;;;;;;;47.70;23.35;;;;;;;8.40;100.00;100197.08;1791587;78;21577;-89
2022/11/03 03:11:37;;;;;;;48.30;22.75;;;;;;;8.40;100.00;100191.83;1794833;78;21041;-90
2022/11/03 03:14:14;;;;;;;53.75;23.55;;;;;;;8.47;100.00;100189.91;1807955;78;20974;-91
2022/11/03 03:16:48;;;;;;;45.60;22.67;;;;;;;8.49;100.00;100185.02;1770154;79;21614;-91
2022/11/03 03:19:27;;;;;;;42.98;21.40;;;;;;;8.60;100.00;100176.39;1807583;78;21068;-90
2022/11/03 03:21:58;;;;;;;45.38;23.02;;;;;;;8.55;100.00;100170.39;1795253;78;21134;-89
2022/11/03 03:24:39;;;;;;;35.43;20.12;;;;;;;8.55;100.00;100176.95;1802845;78;21036;-91
2022/11/03 03:27:10;;;;;;;49.23;23.70;;;;;;;8.56;100.00;100174.75;1807305;78;21531;-90
2022/11/03 03:29:43;;;;;;;47.45;23.57;;;;;;;8.53;100.00;100176.13;1808345;78;21053;-93
2022/11/03 03:32:12;;;;;;;49.13;23.65;;;;;;;8.51;100.00;100179.28;1802841;78;21037;-91
2022/11/03 03:34:39;;;;;;;51.48;23.75;;;;;;;8.50;100.00;100165.72;1803625;78;21278;-91
2022/11/03 03:37:05;;;;;;;53.52;24.63;;;;;;;8.47;100.00;100169.76;1759085;79;21010;-90
2022/11/03 03:39:35;;;;;;;52.03;24.12;;;;;;;8.51;100.00;100176.66;1807731;79;21020;-91
2022/11/03 03:42:01;;;;;;;47.93;24.77;;;;;;;8.50;100.00;100164.41;1808631;79;21049;-92
2022/11/03 03:44:29;;;;;;;48.02;24.92;;;;;;;8.53;100.00;100159.06;1803668;78;20993;-92
2022/11/03 03:47:16;;;;;;;51.92;24.75;;;;;;;8.57;100.00;100159.86;1802481;78;21216;-91
2022/11/03 03:49:42;;;;;;;49.98;23.50;;;;;;;8.53;100.00;100158.22;1808054;78;21053;-89
2022/11/03 03:52:11;;;;;;;49.27;24.23;;;;;;;8.53;100.00;100157.75;1771260;78;21003;-91
2022/11/03 03:54:37;;;;;;;47.62;23.40;;;;;;;8.54;100.00;100156.02;1801415;78;21056;-92
2022/11/03 03:57:08;;;;;;;47.13;23.50;;;;;;;8.58;100.00;100150.63;1804864;78;21028;-91
2022/11/03 03:59:35;;;;;;;44.77;21.05;;;;;;;8.55;100.00;100152.02;1806106;78;21211;-91
2022/11/03 04:02:01;;;;;;;34.35;18.92;;;;;;;8.53;100.00;100159.53;1804267;78;21083;-90
2022/11/03 04:04:29;;;;;;;30.62;17.40;;;;;;;8.53;100.00;100153.81;1808795;78;21018;-90
2022/11/03 04:09:44;;;;;;;41.35;22.58;;;;;;;8.61;100.00;100154.94;1776278;78;21068;-89
2022/11/03 04:23:06;;;;;;;34.63;18.10;;;;;;;8.66;100.00;100142.98;1731296;80;21013;-91
2022/11/03 04:25:33;;;;;;;37.67;19.52;;;;;;;8.65;100.00;100141.25;1741383;81;21260;-90
2022/11/03 04:28:01;;;;;;;36.98;18.60;;;;;;;8.61;100.00;100137.41;1777839;78;21062;-90
2022/11/03 04:30:28;;;;;;;36.93;19.50;;;;;;;8.61;100.00;100132.63;1750123;80;21022;-92
2022/11/03 04:32:55;;;;;;;40.90;21.25;;;;;;;8.59;100.00;100127.41;1740980;81;21070;-91
2022/11/03 04:35:23;;;;;;;46.45;23.73;;;;;;;8.57;100.00;100127.89;1768506;78;20995;-90
2022/11/03 04:37:57;;;;;;;53.38;25.57;;;;;;;8.67;100.00;100127.17;1772792;78;21151;-92
2022/11/03 04:40:26;;;;;;;52.50;27.02;;;;;;;8.74;100.00;100118.66;1773751;78;20919;-90
2022/11/03 04:42:54;;;;;;;50.85;26.62;;;;;;;8.71;100.00;100120.08;1776282;76;21030;-92
2022/11/03 04:45:27;;;;;;;52.13;26.42;;;;;;;8.71;100.00;100122.70;1755374;78;20910;-91
2022/11/03 04:47:53;;;;;;;51.58;25.82;;;;;;;8.79;100.00;100129.91;1746049;78;20954;-91
2022/11/03 04:50:22;;;;;;;52.25;25.92;;;;;;;8.77;100.00;100135.66;1746548;79;21068;-90
2022/11/03 04:52:57;;;;;;;50.48;26.27;;;;;;;8.76;100.00;100132.15;1743244;79;21084;-89
2022/11/03 04:55:24;;;;;;;43.55;22.07;;;;;;;8.77;100.00;100131.27;1742636;81;21100;-89
2022/11/03 04:57:59;;;;;;;55.88;28.27;;;;;;;8.74;100.00;100133.11;1783203;79;20963;-92
2022/11/03 05:00:26;;;;;;;51.00;26.77;;;;;;;8.75;100.00;100141.41;1722864;80;21011;-90
2022/11/03 05:02:52;;;;;;;52.05;26.55;;;;;;;8.69;100.00;100142.89;1766886;80;22188;-90
2022/11/03 05:05:24;;;;;;;53.70;25.82;;;;;;;8.65;100.00;100145.19;1775384;78;21073;-92
2022/11/03 05:07:59;;;;;;;60.28;31.27;;;;;;;8.61;100.00;100140.03;1769524;78;21068;-91
2022/11/03 05:10:27;;;;;;;54.85;28.52;;;;;;;8.65;100.00;100138.63;1742488;80;20974;-92
2022/11/03 05:12:55;;;;;;;58.95;30.35;;;;;;;8.57;100.00;100135.77;1775391;78;21085;-92
2022/11/03 05:15:33;;;;;;;61.63;32.00;;;;;;;8.63;100.00;100137.38;1730765;80;21175;-92
2022/11/03 05:18:09;;;;;;;57.30;29.32;;;;;;;8.49;100.00;100148.27;1753129;78;21271;-90
2022/11/03 05:20:43;;;;;;;60.73;29.52;;;;;;;8.57;100.00;100142.33;1768555;78;21076;-92
2022/11/03 05:23:10;;;;;;;51.63;27.80;;;;;;;8.61;100.00;100140.03;1753232;78;21681;-92
2022/11/03 05:25:41;;;;;;;57.65;28.02;;;;;;;8.58;100.00;100145.81;1765579;78;21052;-91
2022/11/03 05:28:28;;;;;;;55.05;27.98;;;;;;;8.54;100.00;100142.44;1786863;80;21091;-92
2022/11/03 05:30:56;;;;;;;55.98;28.02;;;;;;;8.58;100.00;100144.08;1738997;78;20981;-90
2022/11/03 05:33:33;;;;;;;50.28;25.88;;;;;;;8.57;100.00;100147.58;1756767;78;21053;-92
2022/11/03 05:36:17;;;;;;;52.98;27.62;;;;;;;8.57;100.00;100156.77;1772911;78;21044;-92
2022/11/03 05:38:46;;;;;;;64.27;31.97;;;;;;;8.63;100.00;100148.30;1779472;78;21039;-91
2022/11/03 05:41:22;;;;;;;71.67;33.67;;;;;;;8.65;100.00;100150.44;1753708;78;21125;-92
2022/11/03 05:44:01;;;;;;;64.87;29.72;;;;;;;8.63;100.00;100146.56;1752861;78;21029;-92
2022/11/03 05:46:32;;;;;;;62.90;29.65;;;;;;;8.58;100.00;100151.95;1769283;80;21124;-92
2022/11/03 05:49:01;;;;;;;67.00;34.67;;;;;;;8.55;100.00;100152.02;1787770;78;21038;-92
2022/11/03 05:51:34;;;;;;;54.03;27.77;;;;;;;8.59;100.00;100153.66;1805606;78;21042;-89
2022/11/03 05:54:02;;;;;;;49.80;26.20;;;;;;;8.66;100.00;100143.84;1780619;79;22230;-90
2022/11/03 05:56:29;;;;;;;63.55;33.42;;;;;;;8.66;100.00;100148.23;1807193;79;21546;-93
2022/11/03 05:58:56;;;;;;;51.63;27.05;;;;;;;8.71;100.00;100142.39;1807107;78;21013;-93
2022/11/03 06:01:30;;;;;;;59.05;30.40;;;;;;;8.83;100.00;100143.34;1806904;78;20970;-91
2022/11/03 06:04:28;;;;;;;50.50;28.47;;;;;;;8.89;100.00;100149.73;1806388;78;20985;-89
2022/11/03 06:07:01;;;;;;;60.03;30.25;;;;;;;8.97;100.00;100140.30;1802369;78;21203;-92
2022/11/03 06:09:27;;;;;;;66.05;32.33;;;;;;;9.02;100.00;100141.05;1807796;79;21172;-92
2022/11/03 06:11:57;;;;;;;74.35;35.65;;;;;;;8.92;100.00;100140.44;1807392;79;20934;-91
2022/11/03 06:14:29;;;;;;;60.17;31.55;;;;;;;9.02;100.00;100148.92;1784993;79;21185;-93
2022/11/03 06:17:06;;;;;;;60.38;30.32;;;;;;;8.95;100.00;100141.68;1807842;79;21128;-92
2022/11/03 06:19:46;;;;;;;65.65;34.95;;;;;;;9.03;100.00;100138.34;1808175;78;21103;-90
2022/11/03 06:22:29;;;;;;;62.58;32.15;;;;;;;8.92;100.00;100143.06;1810015;79;21044;-90
2022/11/03 10:15:42;;;;;;;4.00;3.00;;;;;;;9.35;100.00;100085.70;1833849;76;28104;-91
2022/11/03 10:18:09;;;;;;;4.62;3.60;;;;;;;10.11;100.00;100079.58;1788675;79;21075;-92
2022/11/03 10:20:39;;;;;;;4.20;3.30;;;;;;;10.31;100.00;100083.28;1789074;80;21250;-90
2022/11/03 10:23:08;;;;;;;4.10;3.13;;;;;;;10.49;100.00;100080.00;1789656;80;21182;-92
2022/11/03 10:25:38;;;;;;;6.22;3.37;;;;;;;10.68;100.00;100081.00;1782464;79;21060;-92
2022/11/03 10:28:25;;;;;;;3.30;3.00;;;;;;;10.78;100.00;100080.66;1781744;80;20998;-91
2022/11/03 10:31:07;;;;;;;6.17;3.90;;;;;;;10.80;100.00;100082.77;1790517;79;21073;-94
2022/11/03 10:33:39;;;;;;;7.42;5.33;;;;;;;10.85;100.00;100079.49;1804953;79;21601;-92
2022/11/03 10:36:24;;;;;;;10.08;5.83;;;;;;;10.88;100.00;100085.95;1803023;79;20939;-89
2022/11/03 10:38:54;;;;;;;4.72;3.55;;;;;;;10.84;100.00;100083.06;1805703;79;21081;-90
2022/11/03 10:41:26;;;;;;;3.77;3.35;;;;;;;10.76;100.00;100082.48;1805270;79;21080;-91
2022/11/03 10:44:06;;;;;;;;;;;;;;;10.79;100.00;100081.04;1808677;79;21108;-91
2022/11/03 10:46:33;;;;;;;3.07;2.57;;;;;;;10.90;100.00;100084.12;1814172;79;21088;-92
2022/11/03 10:49:14;;;;;;;2.95;2.60;;;;;;;10.83;100.00;100074.73;1813443;79;21093;-93
2022/11/03 10:51:44;;;;;;;3.12;2.83;;;;;;;10.80;100.00;100077.50;1812610;79;21040;-92
2022/11/03 10:54:14;;;;;;;2.85;2.33;;;;;;;10.78;100.00;100072.28;1781997;79;21045;-92
2022/11/03 10:56:43;;;;;;;5.37;3.42;;;;;;;10.84;100.00;100077.80;1813670;79;21114;-92
2022/11/03 10:59:30;;;;;;;6.53;4.05;;;;;;;10.76;100.00;100077.22;1813551;79;21864;-91
2022/11/03 11:01:56;;;;;;;4.80;3.77;;;;;;;10.76;100.00;100082.02;1813515;79;21045;-91
2022/11/03 11:04:23;;;;;;;4.67;3.75;;;;;;;10.73;100.00;100082.61;1809414;79;21033;-92
2022/11/03 11:06:52;;;;;;;4.90;3.10;;;;;;;10.73;100.00;100086.56;1814116;79;21072;-91
2022/11/03 11:09:25;;;;;;;4.10;3.40;;;;;;;10.80;100.00;100077.04;1814326;79;21116;-93
2022/11/03 11:12:05;;;;;;;4.80;3.80;;;;;;;10.81;100.00;100077.89;1814045;79;21451;-92
2022/11/03 11:14:35;;;;;;;7.75;5.03;;;;;;;10.77;100.00;100081.59;1813706;79;21035;-92
2022/11/03 11:17:09;;;;;;;9.25;6.15;;;;;;;10.71;100.00;100078.24;1813715;79;21068;-92
2022/11/03 11:20:24;;;;;;;9.28;6.37;;;;;;;10.70;100.00;100071.74;1808854;79;21076;-92
2022/11/03 11:22:49;;;;;;;6.72;5.10;;;;;;;10.68;100.00;100073.11;1802319;79;21474;-91
2022/11/03 11:25:19;;;;;;;6.45;5.12;;;;;;;10.56;100.00;100081.92;1813211;79;21219;-92
2022/11/03 11:27:55;;;;;;;5.78;4.65;;;;;;;10.61;100.00;100076.89;1812548;79;21045;-91
2022/11/03 11:30:32;;;;;;;;;;;;;;;10.54;100.00;100074.56;1815676;79;21057;-92
2022/11/03 11:33:02;;;;;;;10.60;4.12;;;;;;;10.57;100.00;100075.28;1813435;79;20413;-91
2022/11/03 11:35:35;;;;;;;5.53;4.70;;;;;;;10.44;100.00;100081.92;1801131;79;21056;-90
2022/11/03 11:38:54;;;;;;;7.40;4.47;;;;;;;10.40;100.00;100086.89;1814287;79;21257;-92
2022/11/03 11:42:00;;;;;;;7.28;4.92;;;;;;;10.46;100.00;100086.67;1813797;79;21002;-91
2022/11/03 11:44:52;;;;;;;5.80;4.42;;;;;;;10.35;100.00;100083.11;1817274;77;20848;-90
2022/11/03 11:47:48;;;;;;;8.03;5.03;;;;;;;10.37;100.00;100081.75;1817090;77;21009;-91
2022/11/03 11:50:22;;;;;;;11.08;5.80;;;;;;;10.37;100.00;100088.33;1817257;77;20955;-90
2022/11/03 11:53:11;;;;;;;7.28;5.78;;;;;;;10.19;100.00;100064.39;1816926;77;21112;-92
2022/11/03 11:55:44;;;;;;;10.05;6.65;;;;;;;10.32;100.00;100087.65;1817455;77;21072;-90
2022/11/03 11:58:32;;;;;;;;;;;;;;;10.15;100.00;100083.83;1788518;79;21115;-91
2022/11/03 12:01:04;;;;;;;8.70;6.90;;;;;;;10.22;100.00;100078.73;1816958;79;20131;-88
2022/11/03 12:03:41;;;;;;;8.50;6.47;;;;;;;10.21;100.00;100078.78;1813621;79;21076;-91
2022/11/03 12:06:08;;;;;;;9.03;6.60;;;;;;;10.34;100.00;100073.98;1813171;79;21077;-92
2022/11/03 12:08:35;;;;;;;8.23;6.17;;;;;;;10.28;100.00;100081.59;1744767;80;21085;-91
2022/11/03 12:11:05;;;;;;;8.30;5.95;;;;;;;10.26;100.00;100080.78;1743904;82;21027;-92
2022/11/03 12:13:49;;;;;;;12.03;6.92;;;;;;;10.17;100.00;100071.48;1746715;82;21104;-93
2022/11/03 12:16:32;;;;;;;8.20;6.45;;;;;;;10.21;100.00;100075.69;1774449;80;21045;-92
2022/11/03 12:19:37;;;;;;;8.95;6.78;;;;;;;10.18;100.00;100075.81;1774341;80;21246;-93
2022/11/03 12:22:12;;;;;;;7.87;6.03;;;;;;;10.22;100.00;100069.53;1774180;80;21105;-89
2022/11/03 12:24:50;;;;;;;9.48;7.08;;;;;;;10.23;100.00;100071.23;1773035;80;21116;-90
2022/11/03 12:27:21;;;;;;;9.20;6.67;;;;;;;10.28;100.00;100073.70;1774552;80;21030;-91
2022/11/03 12:29:58;;;;;;;9.33;6.42;;;;;;;10.20;100.00;100081.88;1761556;80;20995;-92
2022/11/03 12:32:25;;;;;;;11.18;7.15;;;;;;;10.18;100.00;100082.39;1774625;80;21146;-91
2022/11/03 12:34:53;;;;;;;10.40;7.20;;;;;;;10.18;100.00;100087.66;1775215;80;21061;-92
2022/11/03 12:37:23;;;;;;;10.25;7.50;;;;;;;10.20;100.00;100081.03;1774428;80;21534;-90
2022/11/03 12:39:51;;;;;;;10.80;7.62;;;;;;;10.29;100.00;100082.05;1774442;80;21061;-91
2022/11/03 12:42:19;;;;;;;13.43;8.55;;;;;;;10.23;100.00;100074.33;1743939;80;21089;-91
2022/11/03 12:44:47;;;;;;;16.65;11.35;;;;;;;10.25;100.00;100079.94;1761999;80;21283;-91
2022/11/03 12:47:13;;;;;;;14.45;10.35;;;;;;;10.25;100.00;100072.04;1749176;82;21113;-91
2022/11/03 12:49:40;;;;;;;10.60;7.90;;;;;;;10.24;100.00;100078.23;1748641;82;21033;-90
2022/11/03 12:52:07;;;;;;;9.23;7.28;;;;;;;10.25;100.00;100075.14;1748821;82;21112;-92
2022/11/03 12:54:34;;;;;;;9.55;6.55;;;;;;;10.28;100.00;100078.96;1748940;82;21065;-92
2022/11/03 12:57:00;;;;;;;9.98;7.17;;;;;;;10.19;100.00;100078.86;1748480;82;21471;-92
2022/11/03 12:59:27;;;;;;;12.70;7.58;;;;;;;10.27;100.00;100078.58;1752256;81;21098;-93
2022/11/03 13:01:53;;;;;;;15.55;9.10;;;;;;;10.14;100.00;100080.77;1752513;81;20944;-93
2022/11/03 13:04:22;;;;;;;12.95;8.48;;;;;;;10.18;100.00;100086.34;1750593;81;21625;-91
2022/11/03 13:06:48;;;;;;;11.40;8.80;;;;;;;10.24;100.00;100088.76;1749197;81;21034;-91
2022/11/03 13:09:15;;;;;;;14.23;9.33;;;;;;;10.28;100.00;100086.45;1749651;81;21103;-91
2022/11/03 13:14:29;;;;;;;9.78;7.45;;;;;;;10.23;100.00;100092.28;1749283;81;21015;-90
2022/11/03 13:16:55;;;;;;;7.55;6.12;;;;;;;10.24;100.00;100088.76;1749169;82;21124;-93
2022/11/03 13:19:24;;;;;;;8.10;6.00;;;;;;;10.25;100.00;100093.09;1749768;82;21069;-92
2022/11/03 13:21:51;;;;;;;8.53;6.33;;;;;;;10.31;100.00;100099.08;1749315;82;21250;-90
2022/11/03 13:24:18;;;;;;;9.13;6.50;;;;;;;10.32;100.00;100097.72;1748881;81;20990;-92
2022/11/03 13:26:45;;;;;;;8.13;6.00;;;;;;;10.30;100.00;100103.48;1749151;82;21033;-91
2022/11/03 13:29:12;;;;;;;9.55;5.62;;;;;;;10.36;100.00;100098.47;1749390;82;21602;-92
2022/11/03 13:31:38;;;;;;;7.95;5.40;;;;;;;10.33;100.00;100102.08;1748895;82;21602;-92
2022/11/03 13:34:05;;;;;;;5.60;4.92;;;;;;;10.21;100.00;100105.95;1748872;82;21933;-92
2022/11/03 13:36:32;;;;;;;9.45;5.50;;;;;;;10.22;100.00;100111.64;1749509;81;21033;-92
2022/11/03 13:38:59;;;;;;;5.72;4.80;;;;;;;10.17;100.00;100107.44;1749607;81;21076;-90
2022/11/03 13:41:26;;;;;;;5.22;4.45;;;;;;;10.11;100.00;100115.57;1750355;82;21049;-91
2022/11/03 13:43:54;;;;;;;5.28;4.78;;;;;;;10.04;100.00;100115.77;1748872;82;21105;-92
2022/11/03 13:46:20;;;;;;;5.53;4.62;;;;;;;10.04;100.00;100099.14;1744242;82;21253;-92
2022/11/03 13:48:47;;;;;;;5.22;3.98;;;;;;;10.05;100.00;100114.00;1744428;81;21741;-92
2022/11/03 13:51:16;;;;;;;6.45;4.87;;;;;;;10.11;100.00;100126.09;1744356;82;21564;-92
2022/11/03 13:53:42;;;;;;;5.95;4.83;;;;;;;10.12;100.00;100119.91;1744159;82;21078;-92
2022/11/03 13:56:09;;;;;;;5.87;4.60;;;;;;;10.06;100.00;100125.80;1743744;82;21113;-91
2022/11/03 13:58:36;;;;;;;6.33;4.95;;;;;;;10.02;100.00;100125.48;1744025;82;21972;-92
2022/11/03 14:01:04;;;;;;;8.48;4.83;;;;;;;10.05;100.00;100124.52;1743999;82;21019;-91
2022/11/03 14:03:30;;;;;;;4.80;4.00;;;;;;;10.05;100.00;100124.52;1739011;82;21027;-91
2022/11/03 14:05:57;;;;;;;5.30;4.30;;;;;;;9.98;100.00;100128.28;1743909;82;21055;-92
2022/11/03 14:08:24;;;;;;;7.10;4.83;;;;;;;9.99;100.00;100127.38;1744012;82;21094;-90
2022/11/03 14:10:52;;;;;;;5.85;4.80;;;;;;;10.01;100.00;100128.20;1743810;82;21203;-90
2022/11/03 14:13:20;;;;;;;6.83;4.28;;;;;;;10.01;100.00;100135.63;1743698;82;21103;-91
2022/11/03 14:15:47;;;;;;;6.55;4.83;;;;;;;10.04;100.00;100134.19;1743369;82;21078;-92
2022/11/03 14:18:17;;;;;;;5.45;4.15;;;;;;;9.97;100.00;100131.84;1744054;82;22060;-91
2022/11/03 14:20:45;;;;;;;5.05;4.55;;;;;;;9.93;100.00;100142.05;1744060;82;21086;-90
2022/11/03 17:59:16;;;;;;;54.60;31.52;;;;;;;7.55;100.00;100224.52;1834339;74;80987;-66
2022/11/03 18:01:42;;;;;;;31.45;20.90;;;;;;;8.13;100.00;100235.35;1684654;84;21073;-64
2022/11/03 18:04:11;;;;;;;75.97;44.08;;;;;;;8.17;100.00;100233.92;1668541;84;21260;-66
2022/11/03 18:06:39;;;;;;;56.18;32.53;;;;;;;8.34;100.00;100235.25;1671460;84;21566;-65
2022/11/03 18:09:06;;;;;;;40.40;23.95;;;;;;;8.36;100.00;100228.20;1695733;84;21063;-66
2022/11/03 18:14:20;;;;;;;18.80;14.23;;;;;;;8.47;100.00;100236.69;1695186;84;21006;-69
2022/11/03 18:16:47;;;;;;;17.02;13.35;;;;;;;8.59;100.00;100231.09;1678969;84;21251;-69
2022/11/03 18:19:15;;;;;;;15.80;12.28;;;;;;;8.64;100.00;100236.68;1689144;84;21093;-70
2022/11/03 18:21:41;;;;;;;14.58;10.98;;;;;;;8.75;100.00;100237.25;1674491;84;21081;-69
2022/11/03 18:24:12;;;;;;;12.70;10.00;;;;;;;8.77;100.00;100231.50;1682043;84;21233;-69
2022/11/03 18:26:40;;;;;;;12.15;9.03;;;;;;;8.82;100.00;100229.14;1688093;84;21153;-70
2022/11/03 18:29:07;;;;;;;13.22;10.80;;;;;;;8.79;100.00;100236.27;1686774;84;21635;-69
2022/11/03 18:31:46;;;;;;;13.78;9.00;;;;;;;8.73;100.00;100238.59;1675970;83;21060;-69
2022/11/03 18:34:22;;;;;;;14.33;10.40;;;;;;;8.70;100.00;100229.50;1668669;84;21138;-70
2022/11/03 18:36:51;;;;;;;17.20;12.33;;;;;;;8.69;100.00;100237.41;1690905;84;21127;-69
2022/11/03 18:39:24;;;;;;;17.25;12.20;;;;;;;8.74;100.00;100230.25;1685553;84;21137;-70
2022/11/03 18:41:51;;;;;;;19.12;12.35;;;;;;;8.75;100.00;100225.43;1680469;84;21332;-70
2022/11/03 18:44:27;;;;;;;14.60;10.85;;;;;;;8.72;100.00;100229.44;1682945;84;21627;-70
2022/11/03 18:46:56;;;;;;;12.63;9.75;;;;;;;8.75;100.00;100229.38;1660930;84;21072;-68
2022/11/03 18:49:24;;;;;;;13.05;10.03;;;;;;;8.77;100.00;100223.17;1664625;86;21077;-70
2022/11/03 18:51:57;;;;;;;12.78;10.53;;;;;;;8.78;100.00;100228.81;1663011;86;21017;-70
2022/11/03 18:54:27;;;;;;;12.98;10.00;;;;;;;8.76;100.00;100232.39;1662433;86;21253;-70
2022/11/03 18:56:53;;;;;;;11.33;8.85;;;;;;;8.80;100.00;100227.47;1664443;86;21081;-70
2022/11/03 18:59:26;;;;;;;13.95;9.68;;;;;;;8.79;100.00;100225.77;1664860;84;21108;-69
2022/11/03 19:01:53;;;;;;;13.43;9.68;;;;;;;8.76;100.00;100225.83;1638563;85;21076;-70
2022/11/03 19:04:20;;;;;;;13.30;10.20;;;;;;;8.90;100.00;100232.00;1655298;85;21136;-70
2022/11/03 19:06:49;;;;;;;10.08;8.58;;;;;;;8.86;100.00;100223.80;1650826;86;21142;-70
2022/11/03 19:09:23;;;;;;;12.73;9.83;;;;;;;8.87;100.00;100223.77;1658514;86;21188;-70
2022/11/03 19:11:52;;;;;;;16.12;10.58;;;;;;;8.79;100.00;100228.39;1657137;85;21202;-70
2022/11/03 19:14:31;;;;;;;21.75;12.47;;;;;;;8.85;100.00;100229.50;1652233;84;21657;-69
2022/11/03 19:16:59;;;;;;;32.63;15.78;;;;;;;8.85;100.00;100229.50;1651343;86;21891;-68
2022/11/03 19:19:27;;;;;;;26.05;14.10;;;;;;;8.88;100.00;100228.13;1652963;86;21149;-69
2022/11/03 19:21:54;;;;;;;25.70;13.50;;;;;;;8.81;100.00;100233.12;1648393;86;21078;-70
2022/11/03 19:24:20;;;;;;;20.65;12.13;;;;;;;8.87;100.00;100239.52;1652457;86;21570;-70